createdAt,value
2023-02-07T00:01:46.786Z,-0.59
2023-02-07T00:04:15.681Z,-0.58
2023-02-07T00:06:44.488Z,-0.61
2023-02-07T00:09:13.540Z,-0.66
2023-02-07T00:11:42.429Z,-0.73
2023-02-07T00:14:12.354Z,-0.82
2023-02-07T00:16:41.922Z,-0.88
2023-02-07T00:19:10.850Z,-0.91
2023-02-07T00:21:39.756Z,-0.93
2023-02-07T00:24:08.734Z,-0.97
2023-02-07T00:26:37.571Z,-1.02
2023-02-07T00:29:06.674Z,-1.07
2023-02-07T00:31:36.223Z,-1.12
2023-02-07T00:34:06.148Z,-1.17
2023-02-07T00:36:35.897Z,-1.19
2023-02-07T00:39:06.304Z,-1.17
2023-02-07T00:41:35.396Z,-1.16
2023-02-07T00:44:04.346Z,-1.16
2023-02-07T00:46:33.330Z,-1.17
2023-02-07T00:49:02.262Z,-1.16
2023-02-07T00:51:31.196Z,-1.16
2023-02-07T00:54:00.572Z,-1.14
2023-02-07T00:56:30.000Z,-1.10
2023-02-07T00:58:59.972Z,-1.05
2023-02-07T01:01:29.027Z,-1.04
2023-02-07T01:03:58.676Z,-0.98
2023-02-07T01:06:29.591Z,-0.97
2023-02-07T01:08:59.726Z,-0.95
2023-02-07T01:11:30.275Z,-0.92
2023-02-07T01:14:00.928Z,-0.88
2023-02-07T01:16:30.548Z,-0.84
2023-02-07T01:18:59.480Z,-0.82
2023-02-07T01:21:28.435Z,-0.81
2023-02-07T01:23:57.497Z,-0.82
2023-02-07T01:26:26.760Z,-0.81
2023-02-07T01:28:56.025Z,-0.84
2023-02-07T01:31:25.334Z,-0.89
2023-02-07T01:33:58.045Z,-0.95
2023-02-07T01:36:27.258Z,-0.98
2023-02-07T01:38:56.455Z,-1.08
2023-02-07T01:41:25.827Z,-1.15
2023-02-07T01:43:56.062Z,-1.21
2023-02-07T01:46:25.083Z,-1.29
2023-02-07T01:48:55.568Z,-1.30
2023-02-07T01:51:24.784Z,-1.28
2023-02-07T01:53:53.764Z,-1.24
2023-02-07T01:56:31.343Z,-1.22
2023-02-07T01:59:02.332Z,-1.21
2023-02-07T02:01:31.196Z,-1.21
2023-02-07T02:04:00.211Z,-1.23
2023-02-07T02:06:30.651Z,-1.24
2023-02-07T02:09:01.061Z,-1.23
2023-02-07T02:11:37.587Z,-1.18
2023-02-07T02:14:08.796Z,-1.12
2023-02-07T02:16:39.612Z,-1.10
2023-02-07T02:19:18.276Z,-1.07
2023-02-07T02:22:05.189Z,-1.07
2023-02-07T02:24:45.484Z,-1.10
2023-02-07T02:27:17.352Z,-1.13
2023-02-07T02:29:59.746Z,-1.16
2023-02-07T02:32:39.365Z,-1.21
2023-02-07T02:35:09.029Z,-1.28
2023-02-07T02:37:47.624Z,-1.37
2023-02-07T02:40:19.559Z,-1.47
2023-02-07T02:42:50.404Z,-1.54
2023-02-07T02:45:19.923Z,-1.59
2023-02-07T02:47:49.345Z,-1.65
2023-02-07T02:50:19.276Z,-1.70
2023-02-07T02:52:51.475Z,-1.77
2023-02-07T02:55:30.223Z,-1.84
2023-02-07T02:58:02.234Z,-1.91
2023-02-07T03:00:36.350Z,-1.97
2023-02-07T03:03:10.583Z,-2.03
2023-02-07T03:05:42.280Z,-2.06
2023-02-07T03:08:14.067Z,-2.06
2023-02-07T03:10:44.689Z,-2.07
2023-02-07T03:13:14.811Z,-2.09
2023-02-07T03:15:46.080Z,-2.16
2023-02-07T03:18:16.336Z,-2.18
2023-02-07T03:20:46.846Z,-2.25
2023-02-07T03:23:15.763Z,-2.30
2023-02-07T03:25:44.662Z,-2.32
2023-02-07T03:28:13.551Z,-2.32
2023-02-07T03:30:43.946Z,-2.33
2023-02-07T03:33:12.933Z,-2.37
2023-02-07T03:35:42.214Z,-2.41
2023-02-07T03:38:12.245Z,-2.45
2023-02-07T03:40:41.725Z,-2.49
2023-02-07T03:43:11.760Z,-2.52
2023-02-07T03:45:40.695Z,-2.54
2023-02-07T03:48:09.767Z,-2.54
2023-02-07T03:50:38.643Z,-2.57
2023-02-07T03:53:07.514Z,-2.63
2023-02-07T03:55:36.726Z,-2.71
2023-02-07T03:58:07.329Z,-2.76
2023-02-07T04:00:36.466Z,-2.82
2023-02-07T04:03:05.887Z,-2.84
2023-02-07T04:05:35.015Z,-2.85
2023-02-07T04:08:04.304Z,-2.88
2023-02-07T04:10:33.197Z,-2.86
2023-02-07T04:13:02.071Z,-2.86
2023-02-07T04:15:31.193Z,-2.89
2023-02-07T04:17:59.985Z,-2.91
2023-02-07T04:20:28.866Z,-2.91
2023-02-07T04:22:57.669Z,-2.90
2023-02-07T04:25:26.695Z,-2.89
2023-02-07T04:27:55.715Z,-2.90
2023-02-07T04:30:24.681Z,-2.92
2023-02-07T04:32:53.762Z,-2.94
2023-02-07T04:35:22.673Z,-2.97
2023-02-07T04:37:51.558Z,-3.01
2023-02-07T04:40:20.552Z,-3.06
2023-02-07T04:42:49.458Z,-3.08
2023-02-07T04:45:18.353Z,-3.09
2023-02-07T04:47:47.165Z,-3.09
2023-02-07T04:50:16.258Z,-3.14
2023-02-07T04:52:45.076Z,-3.15
2023-02-07T04:55:13.955Z,-3.18
2023-02-07T04:57:42.889Z,-3.20
2023-02-07T05:00:13.189Z,-3.20
2023-02-07T05:02:43.573Z,-3.19
2023-02-07T05:05:12.436Z,-3.20
2023-02-07T05:07:41.267Z,-3.21
2023-02-07T05:10:10.503Z,-3.23
2023-02-07T05:12:39.472Z,-3.26
2023-02-07T05:15:08.797Z,-3.31
2023-02-07T05:17:38.746Z,-3.36
2023-02-07T05:20:08.254Z,-3.40
2023-02-07T05:22:37.146Z,-3.39
2023-02-07T05:25:06.477Z,-3.38
2023-02-07T05:27:35.374Z,-3.37
2023-02-07T05:30:05.321Z,-3.39
2023-02-07T05:32:52.070Z,-3.41
2023-02-07T05:35:21.225Z,-3.46
2023-02-07T05:37:50.135Z,-3.51
2023-02-07T05:40:19.299Z,-3.53
2023-02-07T05:42:48.217Z,-3.54
2023-02-07T05:45:17.154Z,-3.54
2023-02-07T05:47:46.107Z,-3.54
2023-02-07T05:50:15.193Z,-3.55
2023-02-07T05:52:44.103Z,-3.57
2023-02-07T05:55:13.443Z,-3.57
2023-02-07T05:57:42.440Z,-3.60
2023-02-07T06:00:13.006Z,-3.58
2023-02-07T06:02:42.443Z,-3.57
2023-02-07T06:05:12.267Z,-3.57
2023-02-07T06:07:41.436Z,-3.58
2023-02-07T06:10:11.187Z,-3.61
2023-02-07T06:12:40.285Z,-3.65
2023-02-07T06:15:09.834Z,-3.69
2023-02-07T06:17:38.743Z,-3.75
2023-02-07T06:20:10.003Z,-3.82
2023-02-07T06:22:38.943Z,-3.85
2023-02-07T06:25:11.634Z,-3.89
2023-02-07T06:27:41.130Z,-3.89
2023-02-07T06:30:11.284Z,-3.88
2023-02-07T06:32:40.362Z,-3.86
2023-02-07T06:35:09.801Z,-3.86
2023-02-07T06:37:38.757Z,-3.86
2023-02-07T06:40:08.280Z,-3.87
2023-02-07T06:42:37.272Z,-3.91
2023-02-07T06:45:06.519Z,-3.93
2023-02-07T06:47:35.419Z,-3.96
2023-02-07T06:50:04.589Z,-3.99
2023-02-07T06:52:33.641Z,-3.99
2023-02-07T06:55:02.493Z,-3.96
2023-02-07T06:57:31.604Z,-3.92
2023-02-07T07:00:00.610Z,-3.89
2023-02-07T07:02:29.601Z,-3.86
2023-02-07T07:04:58.511Z,-3.85
2023-02-07T07:07:27.378Z,-3.85
2023-02-07T07:09:56.230Z,-3.84
2023-02-07T07:12:25.111Z,-3.82
2023-02-07T07:14:54.215Z,-3.76
2023-02-07T07:17:23.186Z,-3.62
2023-02-07T07:19:52.196Z,-3.30
2023-02-07T07:22:21.293Z,-2.95
2023-02-07T07:24:50.269Z,-2.62
2023-02-07T07:27:41.925Z,-2.30
2023-02-07T07:30:14.661Z,-2.03
2023-02-07T07:32:45.038Z,-1.76
2023-02-07T07:35:15.478Z,-1.47
2023-02-07T07:37:46.105Z,-1.21
2023-02-07T07:40:17.133Z,-1.03
2023-02-07T07:42:47.895Z,-0.92
2023-02-07T07:45:38.704Z,-0.82
2023-02-07T07:48:09.194Z,-0.73
2023-02-07T07:50:40.243Z,-0.61
2023-02-07T07:53:10.804Z,-0.48
2023-02-07T07:55:41.186Z,-0.42
2023-02-07T07:58:11.576Z,-0.31
2023-02-07T08:00:42.255Z,-0.18
2023-02-07T08:03:13.508Z,-0.03
2023-02-07T08:05:44.209Z,0.15
2023-02-07T08:08:15.032Z,0.21
2023-02-07T08:10:45.672Z,0.30
2023-02-07T08:13:17.154Z,0.44
2023-02-07T08:15:47.506Z,0.53
2023-02-07T08:18:17.844Z,0.63
2023-02-07T08:20:48.478Z,0.79
2023-02-07T08:23:18.784Z,0.90
2023-02-07T08:25:50.395Z,1.01
2023-02-07T08:28:21.321Z,1.16
2023-02-07T08:30:51.812Z,1.26
2023-02-07T08:33:22.233Z,1.39
2023-02-07T08:35:53.410Z,1.50
2023-02-07T08:38:23.847Z,1.58
2023-02-07T08:40:54.451Z,1.65
2023-02-07T08:43:24.908Z,1.61
2023-02-07T08:45:55.479Z,1.55
2023-02-07T08:48:25.935Z,1.48
2023-02-07T08:50:57.444Z,1.38
2023-02-07T08:53:27.787Z,1.37
2023-02-07T08:55:58.120Z,1.38
2023-02-07T08:58:28.970Z,1.48
2023-02-07T09:00:59.371Z,1.54
2023-02-07T09:03:29.949Z,1.57
2023-02-07T09:06:01.381Z,1.59
2023-02-07T09:08:32.247Z,1.61
2023-02-07T09:11:02.766Z,1.70
2023-02-07T09:13:39.566Z,1.67
2023-02-07T09:16:10.100Z,1.71
2023-02-07T09:18:40.671Z,1.94
2023-02-07T09:21:11.153Z,2.36
2023-02-07T09:23:41.603Z,2.76
2023-02-07T09:26:16.238Z,3.13
2023-02-07T09:28:46.628Z,3.52
2023-02-07T09:31:18.190Z,3.78
2023-02-07T09:33:48.618Z,3.95
2023-02-07T09:36:23.708Z,4.20
2023-02-07T09:38:54.409Z,4.46
2023-02-07T09:41:35.267Z,4.63
2023-02-07T09:44:15.414Z,4.90
2023-02-07T09:46:49.644Z,5.13
2023-02-07T09:49:36.557Z,5.39
2023-02-07T09:52:12.518Z,5.59
2023-02-07T09:54:45.735Z,5.63
2023-02-07T09:57:19.511Z,5.61
2023-02-07T09:59:54.214Z,5.66
2023-02-07T10:02:31.232Z,5.88
2023-02-07T10:05:05.032Z,6.13
2023-02-07T10:07:35.745Z,6.20
2023-02-07T10:10:13.664Z,6.26
2023-02-07T10:13:02.961Z,6.39
2023-02-07T10:15:45.198Z,6.63
2023-02-07T10:18:30.222Z,6.87
2023-02-07T10:21:04.712Z,7.00
2023-02-07T10:23:43.579Z,7.08
2023-02-07T10:26:27.804Z,7.12
2023-02-07T10:29:23.741Z,7.16
2023-02-07T10:31:57.036Z,7.33
2023-02-07T10:34:31.996Z,7.50
2023-02-07T10:37:03.025Z,7.51
2023-02-07T10:39:37.696Z,7.52
2023-02-07T10:42:11.684Z,7.52
2023-02-07T10:44:42.605Z,7.51
2023-02-07T10:47:16.543Z,7.65
2023-02-07T10:49:49.705Z,7.76
2023-02-07T10:52:29.381Z,7.81
2023-02-07T10:55:02.656Z,7.83
2023-02-07T10:57:33.648Z,7.76
2023-02-07T11:00:10.784Z,7.89
2023-02-07T11:02:54.313Z,7.99
2023-02-07T11:05:39.992Z,8.25
2023-02-07T11:08:23.882Z,8.57
2023-02-07T11:10:56.135Z,8.81
2023-02-07T11:13:29.213Z,8.83
2023-02-07T11:16:04.075Z,8.82
2023-02-07T11:18:43.457Z,9.07
2023-02-07T11:21:31.573Z,9.29
2023-02-07T11:24:05.060Z,9.06
2023-02-07T11:26:36.872Z,8.92
2023-02-07T11:29:13.788Z,8.97
2023-02-07T11:31:45.465Z,9.05
2023-02-07T11:34:41.502Z,9.22
2023-02-07T11:37:20.966Z,9.49
2023-02-07T11:39:52.845Z,9.74
2023-02-07T11:42:25.115Z,9.87
2023-02-07T11:44:55.485Z,9.76
2023-02-07T11:47:28.689Z,9.75
2023-02-07T11:50:01.021Z,9.82
2023-02-07T11:52:33.650Z,9.97
2023-02-07T11:55:07.521Z,10.18
2023-02-07T11:57:39.204Z,10.27
2023-02-07T12:00:19.849Z,10.50
2023-02-07T12:02:52.781Z,10.43
2023-02-07T12:05:24.928Z,10.25
2023-02-07T12:07:57.874Z,10.34
2023-02-07T12:10:32.819Z,10.52
2023-02-07T12:13:06.103Z,10.86
2023-02-07T12:15:39.759Z,11.18
2023-02-07T12:18:15.765Z,11.37
2023-02-07T12:20:50.066Z,11.55
2023-02-07T12:23:42.633Z,11.84
2023-02-07T12:26:20.666Z,11.89
2023-02-07T12:29:13.242Z,11.99
2023-02-07T12:31:51.128Z,12.45
2023-02-07T12:34:24.273Z,12.66
2023-02-07T12:36:59.749Z,12.75
2023-02-07T12:39:36.172Z,12.74
2023-02-07T12:42:19.732Z,12.73
2023-02-07T12:44:52.499Z,12.55
2023-02-07T12:47:22.388Z,12.42
2023-02-07T12:50:07.547Z,12.40
2023-02-07T12:52:47.105Z,12.40
2023-02-07T12:55:25.295Z,12.49
2023-02-07T12:58:04.480Z,12.59
2023-02-07T13:00:39.270Z,12.82
2023-02-07T13:03:21.760Z,12.96
2023-02-07T13:11:55.426Z,11.95
2023-02-07T13:14:35.396Z,11.12
2023-02-07T13:17:20.700Z,10.34
2023-02-07T13:19:54.861Z,9.17
2023-02-07T13:22:31.602Z,8.32
2023-02-07T13:25:02.286Z,7.78
2023-02-07T13:27:33.950Z,7.66
2023-02-07T13:30:05.055Z,7.52
2023-02-07T13:32:35.363Z,7.26
2023-02-07T13:35:09.183Z,7.04
2023-02-07T13:37:45.954Z,6.49
2023-02-07T13:40:26.266Z,5.89
2023-02-07T13:43:04.765Z,5.29
2023-02-07T13:45:42.396Z,4.70
2023-02-07T13:48:18.753Z,4.20
2023-02-07T13:50:59.281Z,3.89
2023-02-07T13:53:39.743Z,3.70
2023-02-07T13:56:40.460Z,3.60
2023-02-07T13:59:40.536Z,3.91
2023-02-07T14:02:18.641Z,4.21
2023-02-07T14:04:51.990Z,4.49
2023-02-07T14:07:26.083Z,4.34
2023-02-07T14:09:56.915Z,3.77
2023-02-07T14:12:28.901Z,3.40
2023-02-07T14:15:41.874Z,3.11
2023-02-07T14:18:45.613Z,2.70
2023-02-07T14:21:33.631Z,2.27
2023-02-07T14:24:20.719Z,1.95
2023-02-07T14:27:03.401Z,1.71
2023-02-07T14:29:55.395Z,1.51
2023-02-07T14:32:39.763Z,1.33
2023-02-07T14:35:33.516Z,1.20
2023-02-07T14:38:14.002Z,1.09
2023-02-07T14:41:09.611Z,1.02
2023-02-07T14:43:54.315Z,0.94
2023-02-07T14:46:38.169Z,0.87
2023-02-07T14:49:12.569Z,0.81
2023-02-07T14:51:45.108Z,0.76
2023-02-07T14:54:23.502Z,0.71
2023-02-07T14:57:00.294Z,0.66
2023-02-07T14:59:36.436Z,0.61
2023-02-07T15:02:31.649Z,0.56
2023-02-07T15:05:16.746Z,0.53
2023-02-07T15:07:47.859Z,0.50
2023-02-07T15:10:23.929Z,0.49
2023-02-07T15:12:54.993Z,0.48
2023-02-07T15:15:27.357Z,0.46
2023-02-07T15:18:00.131Z,0.42
2023-02-07T15:20:33.511Z,0.41
2023-02-07T15:23:07.334Z,0.40
2023-02-07T15:25:38.201Z,0.38
2023-02-07T15:28:26.668Z,0.34
2023-02-07T15:30:59.854Z,0.30
2023-02-07T15:33:36.670Z,0.26
2023-02-07T15:36:26.759Z,0.22
2023-02-07T15:38:57.313Z,0.19
2023-02-07T15:41:28.251Z,0.17
2023-02-07T15:44:02.889Z,0.13
2023-02-07T15:46:47.728Z,0.09
2023-02-07T15:49:30.000Z,0.07
2023-02-07T15:52:06.662Z,0.06
2023-02-07T15:54:40.961Z,0.05
2023-02-07T15:57:17.781Z,0.03
2023-02-07T15:59:51.843Z,-0.02
2023-02-07T16:02:29.916Z,-0.04
2023-02-07T16:05:06.360Z,-0.03
2023-02-07T16:07:38.644Z,-0.07
2023-02-07T16:10:20.800Z,-0.09
2023-02-07T16:12:55.405Z,-0.13
2023-02-07T16:15:28.665Z,-0.18
2023-02-07T16:17:59.295Z,-0.26
2023-02-07T16:20:31.065Z,-0.34
2023-02-07T16:23:03.810Z,-0.40
2023-02-07T16:25:36.451Z,-0.47
2023-02-07T16:28:11.253Z,-0.56
2023-02-07T16:30:42.167Z,-0.69
2023-02-07T16:33:15.246Z,-0.83
2023-02-07T16:35:45.729Z,-0.96
2023-02-07T16:38:16.507Z,-1.09
2023-02-07T16:40:47.130Z,-1.20
2023-02-07T16:43:32.779Z,-1.32
2023-02-07T16:46:04.554Z,-1.38
2023-02-07T16:48:34.934Z,-1.47
2023-02-07T16:51:05.677Z,-1.53
2023-02-07T16:53:36.179Z,-1.56
2023-02-07T16:56:07.313Z,-1.60
2023-02-07T16:58:37.753Z,-1.61
2023-02-07T17:01:08.763Z,-1.62
2023-02-07T17:03:39.161Z,-1.60
2023-02-07T17:06:12.408Z,-1.58
2023-02-07T17:08:43.096Z,-1.54
2023-02-07T17:11:19.510Z,-1.55
2023-02-07T17:13:49.885Z,-1.58
2023-02-07T17:16:20.538Z,-1.58
2023-02-07T17:18:51.631Z,-1.54
2023-02-07T17:21:23.793Z,-1.57
2023-02-07T17:23:54.185Z,-1.56
2023-02-07T17:26:26.425Z,-1.46
2023-02-07T17:28:56.987Z,-1.34
2023-02-07T17:31:27.491Z,-1.30
2023-02-07T17:33:58.249Z,-1.25
2023-02-07T17:36:29.676Z,-1.25
2023-02-07T17:39:00.195Z,-1.23
2023-02-07T17:41:31.371Z,-1.21
2023-02-07T17:44:01.764Z,-1.18
2023-02-07T17:46:33.028Z,-1.15
2023-02-07T17:49:03.425Z,-1.18
2023-02-07T17:51:33.772Z,-1.16
2023-02-07T17:54:04.172Z,-1.14
2023-02-07T17:56:35.657Z,-1.15
2023-02-07T17:59:09.475Z,-1.16
2023-02-07T18:01:39.847Z,-1.16
2023-02-07T18:04:10.456Z,-1.19
2023-02-07T18:06:42.327Z,-1.23
2023-02-07T18:09:16.400Z,-1.21
2023-02-07T18:11:47.079Z,-1.23
2023-02-07T18:14:17.960Z,-1.20
2023-02-07T18:16:48.609Z,-1.22
2023-02-07T18:19:19.906Z,-1.24
2023-02-07T18:21:50.427Z,-1.25
2023-02-07T18:24:21.985Z,-1.22
2023-02-07T18:26:52.820Z,-1.16
2023-02-07T18:36:22.893Z,-1.00
2023-02-07T18:38:53.555Z,-0.98
2023-02-07T18:41:26.390Z,-0.91
2023-02-07T18:43:56.737Z,-0.86
2023-02-07T18:46:27.659Z,-0.83
2023-02-07T18:48:59.303Z,-0.83
2023-02-07T18:51:29.753Z,-0.83
2023-02-07T18:54:00.153Z,-0.85
2023-02-07T18:56:30.625Z,-0.80
2023-02-07T18:59:01.009Z,-0.79
2023-02-07T19:01:32.080Z,-0.78
2023-02-07T19:04:02.508Z,-0.71
2023-02-07T19:06:34.091Z,-0.68
2023-02-07T19:09:04.585Z,-0.69
2023-02-07T19:11:35.626Z,-0.70
2023-02-07T19:14:10.346Z,-0.66
2023-02-07T19:16:41.238Z,-0.63
2023-02-07T19:19:13.678Z,-0.68
2023-02-07T19:21:44.490Z,-0.72
2023-02-07T19:24:18.320Z,-0.75
2023-02-07T19:26:50.426Z,-0.77
2023-02-07T19:29:27.872Z,-0.76
2023-02-07T19:31:59.220Z,-0.80
2023-02-07T19:34:29.869Z,-0.82
2023-02-07T19:37:00.346Z,-0.83
2023-02-07T19:39:30.732Z,-0.86
2023-02-07T19:42:01.177Z,-0.88
2023-02-07T19:44:31.604Z,-0.89
2023-02-07T19:47:01.932Z,-0.84
2023-02-07T19:49:32.243Z,-0.84
2023-02-07T19:52:02.576Z,-0.82
2023-02-07T19:54:32.910Z,-0.81
2023-02-07T19:57:03.240Z,-0.82
2023-02-07T19:59:33.546Z,-0.87
2023-02-07T20:02:04.103Z,-0.86
2023-02-07T20:04:37.853Z,-0.84
2023-02-07T20:07:08.171Z,-0.84
2023-02-07T20:09:38.653Z,-0.89
2023-02-07T20:12:09.376Z,-0.99
2023-02-07T20:14:40.146Z,-1.13
2023-02-07T20:17:10.600Z,-1.27
2023-02-07T20:19:41.279Z,-1.41
2023-02-07T20:22:11.604Z,-1.50
2023-02-07T20:24:41.924Z,-1.54
2023-02-07T20:27:12.488Z,-1.59
2023-02-07T20:29:43.247Z,-1.65
2023-02-07T20:32:14.864Z,-1.72
2023-02-07T20:34:45.231Z,-1.82
2023-02-07T20:37:15.623Z,-1.84
2023-02-07T20:39:46.114Z,-1.90
2023-02-07T20:42:16.814Z,-1.94
2023-02-07T20:44:47.325Z,-1.94
2023-02-07T20:47:18.016Z,-1.95
2023-02-07T20:49:48.410Z,-1.90
2023-02-07T20:52:18.860Z,-1.90
2023-02-07T20:54:49.349Z,-1.89
2023-02-07T20:57:20.002Z,-1.95
2023-02-07T20:59:50.768Z,-1.97
2023-02-07T21:02:21.075Z,-1.96
2023-02-07T21:04:51.633Z,-1.98
2023-02-07T21:07:21.988Z,-1.98
2023-02-07T21:09:52.861Z,-1.98
2023-02-07T21:12:23.391Z,-1.98
2023-02-07T21:14:53.755Z,-2.00
2023-02-07T21:17:24.296Z,-2.06
2023-02-07T21:19:54.728Z,-2.12
2023-02-07T21:22:25.087Z,-2.20
2023-02-07T21:24:55.493Z,-2.29
2023-02-07T21:27:25.961Z,-2.36
2023-02-07T21:29:56.319Z,-2.43
2023-02-07T21:32:26.737Z,-2.50
2023-02-07T21:34:57.235Z,-2.55
2023-02-07T21:37:27.947Z,-2.59
2023-02-07T21:39:58.336Z,-2.64
2023-02-07T21:42:28.930Z,-2.70
2023-02-07T21:44:59.379Z,-2.75
2023-02-07T21:47:30.700Z,-2.81
2023-02-07T21:50:01.312Z,-2.86
2023-02-07T21:52:31.972Z,-2.92
2023-02-07T21:55:02.431Z,-2.97
2023-02-07T21:57:33.011Z,-3.00
2023-02-07T22:00:03.456Z,-3.04
2023-02-07T22:02:36.881Z,-3.06
2023-02-07T22:05:07.862Z,-3.09
2023-02-07T22:07:38.211Z,-3.07
2023-02-07T22:10:09.749Z,-3.05
2023-02-07T22:12:40.084Z,-3.02
2023-02-07T22:15:11.036Z,-3.06
2023-02-07T22:17:41.327Z,-3.10
2023-02-07T22:20:12.980Z,-3.11
2023-02-07T22:22:43.389Z,-3.13
2023-02-07T22:25:14.279Z,-3.15
2023-02-07T22:27:44.610Z,-3.16
2023-02-07T22:30:16.548Z,-3.18
2023-02-07T22:32:46.993Z,-3.20
2023-02-07T22:35:17.748Z,-3.23
2023-02-07T22:37:48.150Z,-3.25
2023-02-07T22:40:19.166Z,-3.28
2023-02-07T22:42:49.490Z,-3.31
2023-02-07T22:45:20.520Z,-3.33
2023-02-07T22:47:50.850Z,-3.36
2023-02-07T22:50:21.574Z,-3.34
2023-02-07T22:52:51.928Z,-3.30
2023-02-07T22:55:22.286Z,-3.28
2023-02-07T22:57:53.312Z,-3.28
2023-02-07T23:00:23.799Z,-3.28
2023-02-07T23:02:54.303Z,-3.29
2023-02-07T23:05:24.951Z,-3.26
2023-02-07T23:07:55.892Z,-3.23
2023-02-07T23:10:26.796Z,-3.21
2023-02-07T23:12:57.405Z,-3.18
2023-02-07T23:15:28.273Z,-3.17
2023-02-07T23:17:58.593Z,-3.16
2023-02-07T23:20:28.929Z,-3.13
2023-02-07T23:22:59.317Z,-3.13
2023-02-07T23:25:29.663Z,-3.14
2023-02-07T23:28:00.043Z,-3.13
2023-02-07T23:30:30.853Z,-3.13
2023-02-07T23:33:01.552Z,-3.13
2023-02-07T23:35:32.095Z,-3.13
2023-02-07T23:38:02.830Z,-3.13
2023-02-07T23:40:33.888Z,-3.13
2023-02-07T23:43:04.403Z,-3.12
2023-02-07T23:45:34.856Z,-3.12
2023-02-07T23:48:07.174Z,-3.10
2023-02-07T23:50:38.006Z,-3.11
2023-02-07T23:53:08.425Z,-3.12
2023-02-07T23:55:42.714Z,-3.14
2023-02-07T23:58:12.966Z,-3.14
